createdAt,value
2022-07-31T00:03:10.022Z,97369.19
2022-07-31T00:08:11.733Z,97374.94
2022-07-31T00:13:13.760Z,97370.00
2022-07-31T00:18:15.694Z,97375.75
2022-07-31T00:23:19.041Z,97370.63
2022-07-31T00:28:21.275Z,97371.13
2022-07-31T00:33:23.001Z,97362.28
2022-07-31T00:38:26.930Z,97362.81
2022-07-31T00:43:30.824Z,97354.59
2022-07-31T00:48:33.643Z,97350.69
2022-07-31T00:53:35.797Z,97358.16
2022-07-31T00:58:37.519Z,97358.22
2022-07-31T01:03:39.430Z,97364.63
2022-07-31T01:08:41.462Z,97368.88
2022-07-31T01:13:55.995Z,97363.38
2022-07-31T01:18:58.830Z,97366.97
2022-07-31T01:24:17.856Z,97364.72
2022-07-31T01:29:56.583Z,97371.13
2022-07-31T01:35:05.288Z,97366.88
2022-07-31T01:40:15.304Z,97368.16
2022-07-31T01:45:21.056Z,97363.84
2022-07-31T01:50:43.570Z,97364.63
2022-07-31T01:56:02.734Z,97367.94
2022-07-31T02:01:14.129Z,97371.13
2022-07-31T02:06:18.970Z,97367.78
2022-07-31T02:11:22.048Z,97363.97
2022-07-31T02:16:26.300Z,97371.59
2022-07-31T02:21:37.594Z,97370.63
2022-07-31T02:26:40.510Z,97373.72
2022-07-31T02:31:44.392Z,97378.56
2022-07-31T02:36:47.282Z,97380.22
2022-07-31T02:41:49.153Z,97377.19
2022-07-31T02:46:51.780Z,97378.75
2022-07-31T02:51:53.700Z,97374.03
2022-07-31T02:56:56.100Z,97375.50
2022-07-31T03:01:58.918Z,97369.88
2022-07-31T03:07:02.182Z,97363.28
2022-07-31T03:12:04.990Z,97367.44
2022-07-31T03:17:08.135Z,97362.16
2022-07-31T03:22:13.653Z,97358.25
2022-07-31T03:27:17.170Z,97363.72
2022-07-31T03:32:19.526Z,97365.16
2022-07-31T03:37:21.605Z,97362.28
2022-07-31T03:42:24.348Z,97361.38
2022-07-31T03:47:26.193Z,97360.53
2022-07-31T03:52:29.654Z,97360.53
2022-07-31T03:57:34.083Z,97358.38
2022-07-31T04:02:36.584Z,97363.31
2022-07-31T04:08:04.786Z,97363.59
2022-07-31T04:13:07.009Z,97362.94
2022-07-31T04:18:08.854Z,97366.53
2022-07-31T04:23:16.633Z,97372.94
2022-07-31T04:28:37.616Z,97364.44
2022-07-31T04:33:47.357Z,97371.00
2022-07-31T04:38:50.910Z,97381.31
2022-07-31T04:43:53.058Z,97377.78
2022-07-31T04:48:55.831Z,97379.78
2022-07-31T04:54:01.194Z,97386.16
2022-07-31T04:59:09.861Z,97378.00
2022-07-31T05:04:15.414Z,97382.75
2022-07-31T05:09:19.606Z,97381.81
2022-07-31T05:14:27.808Z,97380.63
2022-07-31T05:19:30.370Z,97372.56
2022-07-31T05:24:58.459Z,97373.38
2022-07-31T05:30:00.562Z,97384.16
2022-07-31T05:35:02.302Z,97377.25
2022-07-31T05:40:04.470Z,97381.69
2022-07-31T05:45:24.659Z,97374.44
2022-07-31T05:50:26.608Z,97372.88
2022-07-31T05:55:28.351Z,97373.38
2022-07-31T06:00:50.246Z,97377.75
2022-07-31T06:05:52.100Z,97389.09
2022-07-31T06:10:54.425Z,97378.75
2022-07-31T06:15:56.339Z,97386.88
2022-07-31T06:20:58.025Z,97391.28
2022-07-31T06:26:00.552Z,97394.13
2022-07-31T06:31:02.429Z,97388.59
2022-07-31T06:36:04.274Z,97390.09
2022-07-31T06:41:39.686Z,97389.00
2022-07-31T06:47:00.312Z,97396.16
2022-07-31T06:52:18.114Z,97396.34
2022-07-31T06:57:20.375Z,97398.66
2022-07-31T07:02:22.196Z,97398.19
2022-07-31T07:07:24.120Z,97399.56
2022-07-31T07:12:34.796Z,97396.78
2022-07-31T07:17:36.799Z,97400.25
2022-07-31T07:22:44.130Z,97398.63
2022-07-31T07:27:49.155Z,97400.06
2022-07-31T07:32:51.063Z,97399.94
2022-07-31T07:37:53.345Z,97404.50
2022-07-31T07:42:58.799Z,97402.53
2022-07-31T07:48:06.772Z,97402.69
2022-07-31T07:53:25.084Z,97402.97
2022-07-31T07:58:48.996Z,97392.63
2022-07-31T08:04:10.802Z,97385.03
2022-07-31T08:09:12.764Z,97378.28
2022-07-31T08:14:40.068Z,97371.66
2022-07-31T08:20:01.861Z,97363.41
2022-07-31T08:25:05.763Z,97366.28
2022-07-31T08:30:08.953Z,97369.16
2022-07-31T08:35:10.725Z,97362.31
2022-07-31T08:40:13.527Z,97363.75
2022-07-31T08:45:15.391Z,97359.75
2022-07-31T08:50:44.132Z,97356.28
2022-07-31T08:55:57.813Z,97352.25
2022-07-31T09:01:04.622Z,97348.63
2022-07-31T09:06:06.715Z,97349.81
2022-07-31T09:11:12.332Z,97339.59
2022-07-31T09:16:24.369Z,97338.06
2022-07-31T09:21:41.606Z,97327.22
2022-07-31T09:26:44.377Z,97332.56
2022-07-31T09:31:46.859Z,97335.03
2022-07-31T09:37:25.650Z,97315.69
2022-07-31T09:42:59.762Z,97307.34
2022-07-31T09:48:15.279Z,97310.25
2022-07-31T09:53:22.013Z,97315.56
2022-07-31T09:58:28.064Z,97315.47
2022-07-31T10:03:29.833Z,97305.88
2022-07-31T10:08:37.043Z,97298.72
2022-07-31T10:14:01.229Z,97297.97
2022-07-31T10:19:11.330Z,97292.34
2022-07-31T10:24:40.374Z,97286.34
2022-07-31T10:29:42.561Z,97283.41
2022-07-31T10:34:45.510Z,97276.41
2022-07-31T10:40:08.743Z,97280.06
2022-07-31T10:45:17.831Z,97273.97
2022-07-31T10:50:36.975Z,97268.00
2022-07-31T10:55:42.779Z,97264.47
2022-07-31T11:01:09.718Z,97257.94
2022-07-31T11:06:11.824Z,97247.22
2022-07-31T11:11:39.523Z,97249.31
2022-07-31T11:17:00.370Z,97230.66
2022-07-31T11:22:30.611Z,97230.38
2022-07-31T11:27:34.771Z,97237.22
2022-07-31T11:32:36.469Z,97230.53
2022-07-31T11:37:46.799Z,97229.44
2022-07-31T11:43:24.842Z,97235.91
2022-07-31T11:48:25.439Z,97227.78
2022-07-31T11:53:29.114Z,97235.00
2022-07-31T11:58:30.853Z,97243.50
2022-07-31T12:03:36.682Z,97236.53
2022-07-31T12:08:39.984Z,97225.91
2022-07-31T12:13:46.610Z,97226.94
2022-07-31T12:18:59.276Z,97222.16
2022-07-31T12:24:01.487Z,97216.81
2022-07-31T12:29:11.415Z,97214.16
2022-07-31T12:34:25.065Z,97211.44
2022-07-31T12:39:47.544Z,97205.31
2022-07-31T12:44:50.280Z,97215.38
2022-07-31T12:49:52.904Z,97212.06
2022-07-31T12:54:55.273Z,97202.16
2022-07-31T12:59:57.109Z,97187.44
2022-07-31T13:04:58.857Z,97194.47
2022-07-31T13:10:19.068Z,97182.81
2022-07-31T13:15:29.600Z,97177.00
2022-07-31T13:20:32.786Z,97172.53
2022-07-31T13:25:34.541Z,97178.09
2022-07-31T13:30:36.317Z,97171.16
2022-07-31T13:35:38.051Z,97161.47
2022-07-31T13:40:58.653Z,97151.84
2022-07-31T13:46:00.737Z,97159.19
2022-07-31T13:51:03.077Z,97155.72
2022-07-31T13:56:04.859Z,97139.78
2022-07-31T14:01:06.796Z,97142.09
2022-07-31T14:06:08.801Z,97143.06
2022-07-31T14:11:22.404Z,97143.97
2022-07-31T14:16:24.295Z,97127.19
2022-07-31T14:21:26.085Z,97114.13
2022-07-31T14:26:28.320Z,97122.00
2022-07-31T14:31:30.108Z,97128.28
2022-07-31T14:36:31.787Z,97119.28
2022-07-31T14:41:34.322Z,97110.84
2022-07-31T14:46:36.182Z,97122.09
2022-07-31T14:51:37.922Z,97115.81
2022-07-31T14:57:00.237Z,97100.47
2022-07-31T15:02:01.571Z,97086.28
2022-07-31T15:07:32.473Z,97090.94
2022-07-31T15:12:25.425Z,97076.22
2022-07-31T15:17:27.381Z,97081.66
2022-07-31T15:22:29.064Z,97069.56
2022-07-31T15:27:30.763Z,97072.47
2022-07-31T15:32:32.507Z,97066.00
2022-07-31T15:37:39.381Z,97065.13
2022-07-31T15:42:42.645Z,97063.91
2022-07-31T15:47:45.818Z,97065.47
2022-07-31T15:52:48.636Z,97062.63
2022-07-31T15:57:50.450Z,97058.97
2022-07-31T16:02:52.487Z,97057.31
2022-07-31T16:08:32.410Z,97044.81
2022-07-31T16:13:16.146Z,97050.56
2022-07-31T16:18:18.764Z,97044.66
2022-07-31T16:23:20.570Z,97056.63
2022-07-31T16:28:22.313Z,97051.03
2022-07-31T16:33:24.094Z,97035.69
2022-07-31T16:38:26.076Z,97038.28
2022-07-31T16:43:49.828Z,97038.06
2022-07-31T16:48:49.505Z,97035.38
2022-07-31T16:54:13.514Z,97029.06
2022-07-31T16:59:13.277Z,97026.47
2022-07-31T17:04:14.950Z,97021.16
2022-07-31T17:09:18.542Z,97017.69
2022-07-31T17:14:23.927Z,97010.81
2022-07-31T17:19:42.492Z,97017.41
2022-07-31T17:24:51.670Z,97011.75
2022-07-31T17:29:53.766Z,97007.72
2022-07-31T17:34:55.878Z,97002.53
2022-07-31T17:39:58.157Z,97006.94
2022-07-31T17:45:01.894Z,97012.69
2022-07-31T17:50:04.329Z,97019.31
2022-07-31T17:55:07.974Z,97021.75
2022-07-31T18:00:10.088Z,97020.78
2022-07-31T18:05:11.738Z,97022.25
2022-07-31T18:10:13.574Z,97026.56
2022-07-31T18:15:15.559Z,97030.03
2022-07-31T18:20:19.320Z,97024.28
2022-07-31T18:25:20.996Z,97030.53
2022-07-31T18:30:23.666Z,97021.34
2022-07-31T18:35:32.099Z,97025.75
2022-07-31T18:40:33.788Z,97030.44
2022-07-31T18:45:36.037Z,97024.50
2022-07-31T18:50:58.608Z,97019.56
2022-07-31T18:56:05.065Z,97021.16
2022-07-31T19:01:06.752Z,97032.59
2022-07-31T19:06:08.678Z,97031.63
2022-07-31T19:11:11.722Z,97041.03
2022-07-31T19:16:13.553Z,97032.78
2022-07-31T19:21:41.681Z,97045.44
2022-07-31T19:26:41.055Z,97047.31
2022-07-31T19:31:42.741Z,97040.53
2022-07-31T19:36:44.483Z,97039.41
2022-07-31T19:42:11.695Z,97049.47
2022-07-31T19:47:08.027Z,97043.81
2022-07-31T19:52:11.194Z,97044.97
2022-07-31T19:57:12.910Z,97046.38
2022-07-31T20:02:16.949Z,97048.50
2022-07-31T20:07:18.880Z,97043.38
2022-07-31T20:12:20.755Z,97042.31
2022-07-31T20:17:22.440Z,97038.94
2022-07-31T20:22:24.245Z,97041.72
2022-07-31T20:27:26.159Z,97037.19
2022-07-31T20:32:27.848Z,97028.72
2022-07-31T20:37:30.581Z,97034.28
2022-07-31T20:42:32.269Z,97032.41
2022-07-31T20:47:33.872Z,97025.66
2022-07-31T20:52:35.582Z,97026.34
2022-07-31T20:57:37.174Z,97023.16
2022-07-31T21:02:39.252Z,97022.69
2022-07-31T21:07:40.966Z,97025.25
2022-07-31T21:12:42.602Z,97021.53
2022-07-31T21:17:44.342Z,97014.81
2022-07-31T21:22:46.059Z,97013.88
2022-07-31T21:27:47.917Z,97015.03
2022-07-31T21:32:49.985Z,97004.22
2022-07-31T21:37:54.754Z,97003.19
2022-07-31T21:42:58.859Z,97002.81
2022-07-31T21:48:09.105Z,96997.59
2022-07-31T21:53:11.340Z,97005.53
2022-07-31T21:58:13.211Z,96996.94
2022-07-31T22:03:14.939Z,96998.66
2022-07-31T22:08:16.978Z,96999.66
2022-07-31T22:13:19.729Z,97004.50
2022-07-31T22:18:21.870Z,96993.41
2022-07-31T22:23:23.888Z,97009.84
2022-07-31T22:28:27.121Z,97004.97
2022-07-31T22:33:28.892Z,96998.03
2022-07-31T22:38:30.859Z,97003.47
2022-07-31T22:44:12.926Z,97013.84
2022-07-31T22:48:55.885Z,97004.56
2022-07-31T22:53:57.638Z,97001.31
2022-07-31T22:58:59.301Z,97010.03
2022-07-31T23:04:01.072Z,97001.72
2022-07-31T23:09:03.082Z,97012.91
2022-07-31T23:14:04.761Z,97011.38
2022-07-31T23:19:06.490Z,97014.09
2022-07-31T23:24:08.852Z,97023.31
2022-07-31T23:29:11.179Z,97020.50
2022-07-31T23:34:15.817Z,97016.38
2022-07-31T23:39:18.480Z,97022.81
2022-07-31T23:44:24.952Z,97012.03
2022-07-31T23:49:27.016Z,97016.59
2022-07-31T23:54:28.817Z,97015.88
2022-07-31T23:59:30.556Z,97017.53
